createdAt,value
2022-09-28T00:03:18.766Z,4.28
2022-09-28T00:08:18.240Z,4.38
2022-09-28T00:13:19.910Z,5.70
2022-09-28T00:18:21.394Z,4.07
2022-09-28T00:23:22.565Z,4.38
2022-09-28T00:28:23.663Z,4.32
2022-09-28T00:33:26.869Z,4.90
2022-09-28T00:38:30.864Z,4.30
2022-09-28T00:43:31.499Z,4.15
2022-09-28T00:48:33.828Z,4.18
2022-09-28T00:53:35.503Z,4.40
2022-09-28T00:58:53.154Z,4.75
2022-09-28T01:03:55.413Z,4.78
2022-09-28T01:08:58.658Z,5.07
2022-09-28T01:13:58.165Z,4.57
2022-09-28T01:19:38.645Z,6.88
2022-09-28T01:24:57.108Z,6.03
2022-09-28T01:30:06.654Z,6.93
2022-09-28T01:35:16.738Z,5.32
2022-09-28T01:40:16.996Z,6.25
2022-09-28T01:45:24.643Z,4.80
2022-09-28T01:50:28.268Z,4.03
2022-09-28T01:55:29.875Z,4.80
2022-09-28T02:00:29.850Z,4.85
2022-09-28T02:05:41.235Z,4.45
2022-09-28T02:11:12.657Z,5.53
2022-09-28T02:16:37.171Z,6.45
2022-09-28T02:21:47.554Z,8.10
2022-09-28T02:26:47.316Z,8.75
2022-09-28T02:31:46.349Z,7.07
2022-09-28T02:36:46.263Z,7.22
2022-09-28T02:42:24.040Z,6.55
2022-09-28T02:48:01.109Z,7.72
2022-09-28T02:53:36.785Z,8.55
2022-09-28T02:58:44.325Z,8.77
2022-09-28T03:03:58.344Z,9.23
2022-09-28T03:09:05.600Z,9.43
2022-09-28T03:14:09.247Z,7.53
2022-09-28T03:19:18.606Z,7.35
2022-09-28T03:24:17.165Z,7.18
2022-09-28T03:29:15.932Z,8.52
2022-09-28T03:34:17.971Z,8.15
2022-09-28T03:39:17.120Z,9.20
2022-09-28T03:44:15.230Z,7.88
2022-09-28T03:49:20.194Z,8.45
2022-09-28T03:54:21.308Z,8.25
2022-09-28T03:59:23.738Z,8.80
2022-09-28T04:04:22.237Z,7.90
2022-09-28T04:09:24.201Z,8.45
2022-09-28T04:14:26.065Z,7.38
2022-09-28T04:19:27.671Z,7.47
2022-09-28T04:24:43.669Z,10.43
2022-09-28T04:29:41.893Z,7.88
2022-09-28T04:34:44.300Z,6.85
2022-09-28T04:39:48.579Z,7.72
2022-09-28T04:44:56.010Z,7.85
2022-09-28T04:49:53.768Z,26.75
2022-09-28T04:54:57.896Z,12.95
2022-09-28T04:59:58.395Z,7.50
2022-09-28T05:05:00.267Z,9.93
2022-09-28T05:10:22.228Z,7.53
2022-09-28T05:15:26.353Z,6.75
2022-09-28T05:20:24.946Z,7.15
2022-09-28T05:25:24.853Z,7.65
2022-09-28T05:30:38.531Z,6.95
2022-09-28T05:36:01.305Z,5.90
2022-09-28T05:41:07.327Z,5.32
2022-09-28T05:46:10.269Z,4.88
2022-09-28T05:51:12.270Z,5.78
2022-09-28T05:56:13.373Z,6.22
2022-09-28T06:01:15.541Z,4.47
2022-09-28T06:06:16.233Z,4.20
2022-09-28T06:11:28.045Z,3.67
2022-09-28T06:16:29.358Z,4.13
2022-09-28T06:21:27.356Z,3.63
2022-09-28T06:26:25.360Z,2.83
2022-09-28T06:31:33.379Z,6.85
2022-09-28T06:36:43.446Z,3.75
2022-09-28T06:41:45.022Z,3.08
2022-09-28T06:47:00.626Z,2.80
2022-09-28T06:52:22.499Z,4.00
2022-09-28T06:57:44.305Z,2.72
2022-09-28T07:02:44.647Z,3.15
2022-09-28T07:08:14.893Z,3.83
2022-09-28T07:13:49.975Z,2.10
2022-09-28T07:18:58.087Z,2.35
2022-09-28T07:23:56.697Z,3.47
2022-09-28T07:29:07.939Z,1.88
2022-09-28T07:34:14.391Z,4.70
2022-09-28T07:40:01.247Z,3.03
2022-09-28T07:45:04.302Z,2.05
2022-09-28T07:50:06.332Z,1.92
2022-09-28T07:55:17.787Z,1.40
2022-09-28T08:00:37.790Z,3.85
2022-09-28T08:05:42.529Z,4.47
2022-09-28T08:10:47.146Z,4.90
2022-09-28T08:16:13.055Z,3.15
2022-09-28T08:21:46.126Z,2.17
2022-09-28T08:26:44.754Z,2.42
2022-09-28T08:31:48.568Z,1.80
2022-09-28T08:37:12.930Z,3.92
2022-09-28T08:42:56.366Z,9.50
2022-09-28T08:48:39.184Z,4.28
2022-09-28T08:54:26.643Z,1.63
2022-09-28T08:59:54.796Z,2.92
2022-09-28T09:05:15.138Z,3.17
2022-09-28T09:10:59.372Z,1.55
2022-09-28T09:16:28.332Z,1.77
2022-09-28T09:22:01.961Z,2.38
2022-09-28T09:27:15.031Z,4.38
2022-09-28T09:32:25.537Z,2.45
2022-09-28T09:37:27.734Z,0.88
2022-09-28T09:43:29.356Z,1.05
2022-09-28T09:49:00.247Z,3.15
2022-09-28T09:54:13.268Z,1.45
2022-09-28T09:59:32.314Z,1.77
2022-09-28T10:04:38.064Z,1.23
2022-09-28T10:09:46.133Z,2.53
2022-09-28T10:14:59.745Z,4.25
2022-09-28T10:20:00.543Z,2.22
2022-09-28T10:25:01.731Z,0.83
2022-09-28T10:30:10.983Z,2.55
2022-09-28T10:35:22.901Z,1.73
2022-09-28T10:40:47.276Z,1.98
2022-09-28T10:46:04.918Z,1.60
2022-09-28T10:51:07.192Z,3.85
2022-09-28T10:56:28.579Z,3.73
2022-09-28T11:01:35.786Z,3.10
2022-09-28T11:06:42.070Z,1.80
2022-09-28T11:11:44.209Z,2.58
2022-09-28T11:16:45.374Z,0.50
2022-09-28T11:21:46.295Z,4.38
2022-09-28T11:26:50.192Z,8.60
2022-09-28T11:31:52.822Z,2.20
2022-09-28T11:37:27.568Z,2.33
2022-09-28T11:42:45.924Z,1.40
2022-09-28T11:47:55.419Z,6.30
2022-09-28T11:53:06.380Z,1.30
2022-09-28T11:58:17.284Z,1.75
2022-09-28T12:03:29.860Z,1.30
2022-09-28T12:08:39.838Z,7.20
2022-09-28T12:14:10.659Z,1.55
2022-09-28T12:19:17.923Z,1.08
2022-09-28T12:24:34.904Z,1.40
2022-09-28T12:29:41.697Z,2.38
2022-09-28T12:34:43.355Z,2.63
2022-09-28T12:39:57.403Z,1.50
2022-09-28T12:45:05.898Z,1.15
2022-09-28T12:50:38.585Z,1.13
2022-09-28T12:56:06.788Z,4.22
2022-09-28T13:01:38.575Z,4.55
2022-09-28T13:07:14.524Z,3.92
2022-09-28T13:12:33.681Z,1.88
2022-09-28T13:17:53.972Z,4.47
2022-09-28T13:22:57.402Z,3.03
2022-09-28T13:28:09.241Z,3.95
2022-09-28T13:33:12.997Z,3.92
2022-09-28T13:38:20.967Z,1.67
2022-09-28T13:43:32.719Z,3.95
2022-09-28T13:48:59.302Z,4.18
2022-09-28T13:54:45.869Z,4.85
2022-09-28T14:00:18.526Z,1.25
2022-09-28T14:05:28.115Z,0.70
2022-09-28T14:10:54.929Z,1.63
2022-09-28T14:15:52.814Z,1.35
2022-09-28T14:21:14.457Z,1.27
2022-09-28T14:26:25.730Z,4.38
2022-09-28T14:31:28.429Z,3.20
2022-09-28T14:36:49.704Z,2.47
2022-09-28T14:41:47.228Z,4.22
2022-09-28T14:46:50.796Z,2.95
2022-09-28T14:51:56.247Z,4.47
2022-09-28T14:56:57.373Z,4.32
2022-09-28T15:02:05.943Z,4.53
2022-09-28T15:07:03.617Z,4.70
2022-09-28T15:12:02.788Z,4.90
2022-09-28T15:17:09.655Z,4.45
2022-09-28T15:22:18.891Z,1.55
2022-09-28T15:27:21.037Z,1.90
2022-09-28T15:32:26.241Z,1.55
2022-09-28T15:37:26.571Z,1.40
2022-09-28T15:42:23.937Z,1.98
2022-09-28T15:47:33.465Z,1.95
2022-09-28T15:52:40.948Z,4.18
2022-09-28T15:57:42.599Z,0.88
2022-09-28T16:03:08.045Z,2.75
2022-09-28T16:08:06.307Z,2.05
2022-09-28T16:13:24.127Z,5.00
2022-09-28T16:18:23.680Z,3.58
2022-09-28T16:23:33.380Z,4.25
2022-09-28T16:28:34.699Z,5.57
2022-09-28T16:34:10.729Z,33.30
2022-09-28T16:39:14.695Z,12.90
2022-09-28T16:44:19.990Z,27.17
2022-09-28T16:49:25.708Z,14.75
2022-09-28T16:54:49.539Z,15.63
2022-09-28T16:59:54.197Z,8.60
2022-09-28T17:04:52.308Z,31.20
2022-09-28T17:09:52.945Z,32.92
2022-09-28T17:14:52.583Z,33.97
2022-09-28T17:19:50.029Z,26.48
2022-09-28T17:24:47.668Z,23.00
2022-09-28T17:29:46.150Z,19.83
2022-09-28T17:34:51.524Z,25.73
2022-09-28T17:39:53.994Z,15.38
2022-09-28T17:44:52.148Z,20.35
2022-09-28T17:49:50.890Z,15.65
2022-09-28T17:54:48.723Z,24.13
2022-09-28T17:59:47.038Z,26.90
2022-09-28T18:04:52.290Z,17.58
2022-09-28T18:09:58.019Z,13.80
2022-09-28T18:14:55.384Z,12.57
2022-09-28T18:19:53.454Z,20.50
2022-09-28T18:24:51.364Z,15.60
2022-09-28T18:29:49.716Z,19.10
2022-09-28T18:34:47.987Z,15.30
2022-09-28T18:39:48.598Z,15.10
2022-09-28T18:44:46.647Z,14.18
2022-09-28T18:49:46.808Z,14.57
2022-09-28T18:54:47.055Z,11.60
2022-09-28T18:59:48.498Z,7.45
2022-09-28T19:04:46.314Z,3.67
2022-09-28T19:09:44.471Z,8.07
2022-09-28T19:14:42.098Z,7.43
2022-09-28T19:19:39.805Z,7.72
2022-09-28T19:24:37.722Z,17.30
2022-09-28T19:29:35.366Z,12.77
2022-09-28T19:34:32.691Z,18.23
2022-09-28T19:39:41.382Z,9.30
2022-09-28T19:44:40.108Z,10.05
2022-09-28T19:49:40.166Z,11.95
2022-09-28T19:54:39.968Z,13.27
2022-09-28T19:59:38.668Z,7.57
2022-09-28T20:04:37.108Z,7.15
2022-09-28T20:09:34.839Z,4.28
2022-09-28T20:14:37.723Z,5.05
2022-09-28T20:19:40.939Z,5.32
2022-09-28T20:24:44.627Z,5.40
2022-09-28T20:29:46.441Z,3.78
2022-09-28T20:34:46.510Z,4.65
2022-09-28T20:39:45.263Z,6.43
2022-09-28T20:44:43.927Z,5.70
2022-09-28T20:49:44.559Z,6.57
2022-09-28T20:54:43.560Z,5.35
2022-09-28T20:59:43.022Z,4.63
2022-09-28T21:04:41.484Z,4.82
2022-09-28T21:09:39.587Z,6.10
2022-09-28T21:14:39.948Z,5.80
2022-09-28T21:19:37.310Z,5.65
2022-09-28T21:24:34.616Z,8.02
2022-09-28T21:29:36.442Z,6.70
2022-09-28T21:34:36.200Z,7.68
2022-09-28T21:39:35.208Z,8.20
2022-09-28T21:44:36.792Z,1.88
2022-09-28T21:49:34.289Z,4.32
2022-09-28T21:54:32.422Z,2.45
2022-09-28T21:59:30.515Z,2.50
2022-09-28T22:04:29.539Z,8.23
2022-09-28T22:09:27.724Z,5.97
2022-09-28T22:14:27.401Z,4.57
2022-09-28T22:19:25.495Z,8.00
2022-09-28T22:24:24.530Z,4.53
2022-09-28T22:29:26.453Z,1.67
2022-09-28T22:34:25.797Z,3.35
2022-09-28T22:39:24.146Z,3.38
2022-09-28T22:44:23.063Z,4.47
2022-09-28T22:49:21.683Z,7.38
2022-09-28T22:54:20.509Z,4.85
2022-09-28T22:59:19.098Z,3.85
2022-09-28T23:04:17.406Z,6.45
2022-09-28T23:09:18.945Z,3.75
2022-09-28T23:14:17.158Z,7.47
2022-09-28T23:19:16.411Z,2.65
2022-09-28T23:24:14.809Z,3.92
2022-09-28T23:29:13.977Z,5.53
2022-09-28T23:34:12.452Z,4.97
2022-09-28T23:39:13.436Z,2.78
2022-09-28T23:44:14.585Z,5.80
2022-09-28T23:49:13.747Z,3.58
2022-09-28T23:54:16.146Z,3.75
2022-09-28T23:59:15.482Z,6.50
